createdAt,value
2023-05-01T00:01:46.808Z,13.50
2023-05-01T00:04:15.059Z,13.10
2023-05-01T00:06:43.509Z,13.30
2023-05-01T00:09:12.026Z,12.90
2023-05-01T00:11:40.105Z,13.40
2023-05-01T00:14:08.168Z,13.20
2023-05-01T00:16:36.732Z,12.50
2023-05-01T00:19:05.094Z,12.80
2023-05-01T00:21:33.193Z,11.80
2023-05-01T00:24:01.189Z,12.50
2023-05-01T00:26:31.432Z,12.40
2023-05-01T00:28:59.552Z,12.20
2023-05-01T00:31:27.783Z,12.60
2023-05-01T00:33:56.516Z,12.20
2023-05-01T00:36:24.470Z,12.30
2023-05-01T00:38:52.591Z,13.40
2023-05-01T00:41:21.362Z,13.10
2023-05-01T00:43:49.441Z,13.90
2023-05-01T00:46:18.668Z,14.00
2023-05-01T00:48:47.358Z,13.40
2023-05-01T00:51:16.085Z,13.60
2023-05-01T00:53:45.118Z,13.60
2023-05-01T00:56:13.360Z,12.80
2023-05-01T00:58:42.456Z,13.10
2023-05-01T01:01:10.570Z,12.30
2023-05-01T01:03:38.892Z,12.50
2023-05-01T01:06:35.199Z,12.90
2023-05-01T01:09:40.164Z,13.60
2023-05-01T01:12:38.231Z,13.70
2023-05-01T01:15:18.787Z,12.80
2023-05-01T01:18:12.522Z,12.30
2023-05-01T01:20:40.641Z,12.20
2023-05-01T01:23:11.618Z,12.30
2023-05-01T01:25:58.489Z,11.80
2023-05-01T01:28:38.557Z,11.90
2023-05-01T01:31:12.579Z,11.50
2023-05-01T01:33:43.104Z,11.80
2023-05-01T01:36:19.346Z,12.00
2023-05-01T01:39:17.203Z,12.10
2023-05-01T01:41:50.704Z,12.20
2023-05-01T01:44:34.931Z,11.50
2023-05-01T01:47:08.863Z,12.50
2023-05-01T01:49:41.549Z,11.70
2023-05-01T01:52:14.392Z,11.60
2023-05-01T01:54:58.993Z,12.70
2023-05-01T01:57:29.180Z,12.10
2023-05-01T01:59:58.500Z,12.20
2023-05-01T02:02:28.893Z,12.00
2023-05-01T02:04:59.527Z,11.70
2023-05-01T02:07:29.579Z,11.50
2023-05-01T02:09:58.977Z,11.60
2023-05-01T02:12:27.887Z,12.00
2023-05-01T02:14:58.919Z,11.50
2023-05-01T02:17:28.719Z,11.50
2023-05-01T02:19:58.037Z,12.30
2023-05-01T02:22:28.031Z,11.90
2023-05-01T02:24:57.961Z,11.70
2023-05-01T02:27:32.982Z,11.40
2023-05-01T02:30:01.106Z,11.90
2023-05-01T02:32:29.152Z,11.60
2023-05-01T02:34:58.018Z,11.70
2023-05-01T02:37:26.501Z,11.80
2023-05-01T02:39:55.283Z,11.20
2023-05-01T02:42:25.778Z,11.60
2023-05-01T02:45:05.830Z,11.40
2023-05-01T02:47:37.455Z,11.10
2023-05-01T02:50:08.131Z,11.80
2023-05-01T02:52:37.655Z,11.10
2023-05-01T02:55:32.143Z,11.80
2023-05-01T02:58:00.724Z,11.00
2023-05-01T03:00:28.914Z,11.20
2023-05-01T03:02:57.491Z,11.30
2023-05-01T03:05:25.448Z,11.10
2023-05-01T03:07:53.421Z,10.40
2023-05-01T03:10:21.492Z,10.60
2023-05-01T03:12:49.467Z,10.80
2023-05-01T03:15:18.673Z,11.50
2023-05-01T03:17:46.705Z,11.10
2023-05-01T03:20:14.821Z,10.70
2023-05-01T03:22:42.858Z,10.40
2023-05-01T03:25:10.817Z,10.50
2023-05-01T03:27:39.515Z,11.40
2023-05-01T03:30:10.173Z,11.10
2023-05-01T03:32:39.032Z,10.30
2023-05-01T03:35:09.257Z,11.20
2023-05-01T03:37:37.345Z,10.10
2023-05-01T03:40:06.553Z,9.80
2023-05-01T03:42:52.917Z,10.10
2023-05-01T03:45:23.089Z,10.40
2023-05-01T03:47:51.180Z,10.20
2023-05-01T03:50:19.595Z,10.00
2023-05-01T03:52:48.489Z,10.00
2023-05-01T03:55:16.800Z,9.70
2023-05-01T03:57:47.728Z,10.20
2023-05-01T04:00:16.101Z,10.50
2023-05-01T04:02:44.353Z,9.90
2023-05-01T04:05:16.104Z,10.10
2023-05-01T04:07:47.983Z,10.60
2023-05-01T04:10:17.261Z,11.10
2023-05-01T04:12:51.993Z,11.90
2023-05-01T04:15:20.182Z,11.90
2023-05-01T04:17:48.988Z,11.30
2023-05-01T04:20:19.380Z,10.70
2023-05-01T04:22:48.680Z,10.70
2023-05-01T04:25:16.749Z,10.10
2023-05-01T04:27:45.492Z,10.60
2023-05-01T04:30:14.017Z,10.30
2023-05-01T04:32:42.020Z,10.60
2023-05-01T04:35:10.749Z,10.70
2023-05-01T04:37:38.994Z,10.60
2023-05-01T04:40:09.827Z,9.50
2023-05-01T04:42:39.459Z,8.80
2023-05-01T04:45:10.594Z,8.00
2023-05-01T04:47:38.682Z,7.30
2023-05-01T04:50:08.426Z,7.00
2023-05-01T04:52:36.524Z,6.50
2023-05-01T04:55:05.582Z,6.60
2023-05-01T04:57:36.316Z,7.00
2023-05-01T05:00:08.128Z,7.20
2023-05-01T05:02:42.237Z,6.10
2023-05-01T05:05:11.067Z,6.80
2023-05-01T05:07:39.747Z,6.80
2023-05-01T05:10:43.249Z,6.50
2023-05-01T05:13:20.456Z,6.30
2023-05-01T05:15:52.672Z,6.60
2023-05-01T05:18:22.775Z,6.00
2023-05-01T05:20:51.297Z,6.00
2023-05-01T05:23:19.692Z,5.50
2023-05-01T05:25:47.648Z,5.40
2023-05-01T05:28:15.718Z,5.10
2023-05-01T05:30:43.995Z,5.40
2023-05-01T05:33:14.908Z,5.60
2023-05-01T05:35:43.504Z,5.50
2023-05-01T05:38:11.580Z,5.40
2023-05-01T05:40:41.658Z,5.30
2023-05-01T05:43:10.898Z,5.50
2023-05-01T05:45:39.215Z,5.60
2023-05-01T05:48:07.306Z,5.40
2023-05-01T05:50:37.669Z,5.70
2023-05-01T05:53:05.750Z,5.30
2023-05-01T05:55:34.019Z,4.90
2023-05-01T05:58:05.982Z,5.30
2023-05-01T06:00:34.057Z,5.00
2023-05-01T06:03:05.633Z,5.30
2023-05-01T06:05:34.586Z,5.00
2023-05-01T06:08:02.979Z,4.70
2023-05-01T06:10:31.561Z,4.90
2023-05-01T06:13:03.970Z,6.20
2023-05-01T06:15:44.012Z,5.00
2023-05-01T06:18:13.235Z,5.00
2023-05-01T06:20:41.824Z,4.60
2023-05-01T06:23:10.099Z,4.80
2023-05-01T06:26:01.368Z,4.70
2023-05-01T06:28:29.524Z,5.00
2023-05-01T06:30:57.861Z,4.80
2023-05-01T06:33:27.001Z,4.70
2023-05-01T06:36:04.444Z,5.00
2023-05-01T06:38:33.280Z,4.60
2023-05-01T06:41:01.755Z,5.20
2023-05-01T06:43:31.354Z,4.70
2023-05-01T06:45:59.806Z,4.60
2023-05-01T06:48:27.808Z,4.80
2023-05-01T06:50:56.515Z,4.70
2023-05-01T06:53:24.565Z,4.80
2023-05-01T06:55:52.630Z,4.70
2023-05-01T06:58:24.121Z,4.80
2023-05-01T07:00:54.243Z,4.50
2023-05-01T07:03:22.519Z,4.60
2023-05-01T07:05:50.559Z,4.80
2023-05-01T07:08:18.616Z,4.80
2023-05-01T07:10:46.586Z,5.10
2023-05-01T07:13:14.490Z,4.60
2023-05-01T07:15:42.517Z,4.60
2023-05-01T07:18:12.748Z,5.20
2023-05-01T07:20:41.132Z,4.80
2023-05-01T07:23:09.935Z,4.50
2023-05-01T07:25:38.290Z,4.50
2023-05-01T07:28:08.213Z,4.50
2023-05-01T07:30:36.786Z,4.40
2023-05-01T07:33:06.451Z,4.40
2023-05-01T07:35:34.549Z,4.00
2023-05-01T07:38:02.842Z,4.10
2023-05-01T07:40:34.023Z,3.90
2023-05-01T07:43:02.327Z,3.90
2023-05-01T07:45:30.487Z,3.60
2023-05-01T07:47:58.571Z,3.30
2023-05-01T07:50:27.039Z,3.60
2023-05-01T07:52:54.976Z,3.60
2023-05-01T07:55:23.856Z,3.80
2023-05-01T07:57:52.132Z,3.30
2023-05-01T08:00:20.797Z,4.00
2023-05-01T08:02:48.906Z,3.80
2023-05-01T08:05:17.032Z,3.90
2023-05-01T08:07:45.516Z,4.10
2023-05-01T08:10:13.900Z,3.90
2023-05-01T08:12:42.177Z,3.90
2023-05-01T08:15:10.240Z,4.10
2023-05-01T08:17:38.859Z,4.40
2023-05-01T08:20:08.110Z,3.80
2023-05-01T08:22:36.093Z,3.90
2023-05-01T08:25:05.724Z,3.60
2023-05-01T08:27:34.123Z,4.00
2023-05-01T08:30:02.160Z,3.50
2023-05-01T08:32:30.442Z,3.40
2023-05-01T08:34:58.499Z,3.40
2023-05-01T08:37:26.974Z,2.70
2023-05-01T08:39:55.186Z,3.00
2023-05-01T08:42:23.707Z,3.20
2023-05-01T08:44:54.587Z,3.20
2023-05-01T08:47:22.844Z,3.10
2023-05-01T08:49:52.670Z,3.00
2023-05-01T08:52:22.373Z,3.20
2023-05-01T08:54:51.390Z,3.60
2023-05-01T08:57:20.944Z,3.00
2023-05-01T08:59:51.625Z,3.70
2023-05-01T09:02:22.275Z,3.40
2023-05-01T09:04:51.283Z,3.20
2023-05-01T09:07:19.397Z,3.40
2023-05-01T09:09:47.449Z,3.20
2023-05-01T09:12:23.811Z,3.20
2023-05-01T09:14:56.621Z,3.90
2023-05-01T09:17:25.075Z,3.30
2023-05-01T09:19:53.497Z,3.20
2023-05-01T09:22:21.833Z,2.90
2023-05-01T09:24:50.212Z,2.60
2023-05-01T09:27:18.305Z,3.00
2023-05-01T09:29:48.134Z,2.80
2023-05-01T09:32:21.275Z,2.90
2023-05-01T09:34:51.168Z,3.40
2023-05-01T09:37:28.908Z,3.40
2023-05-01T09:40:14.358Z,3.70
2023-05-01T09:42:51.692Z,3.60
2023-05-01T09:45:20.255Z,3.90
2023-05-01T09:47:48.847Z,4.00
2023-05-01T09:50:35.729Z,4.00
2023-05-01T09:53:06.568Z,3.90
2023-05-01T09:55:35.264Z,4.10
2023-05-01T09:58:03.833Z,4.30
2023-05-01T10:00:32.118Z,4.00
2023-05-01T10:03:14.346Z,4.50
2023-05-01T10:05:45.915Z,4.60
2023-05-01T10:08:15.292Z,4.40
2023-05-01T10:10:43.913Z,4.30
2023-05-01T10:13:16.529Z,4.40
2023-05-01T10:15:49.192Z,4.40
2023-05-01T10:18:17.747Z,4.70
2023-05-01T10:20:45.872Z,4.70
2023-05-01T10:23:14.409Z,4.50
2023-05-01T10:25:43.080Z,4.30
2023-05-01T10:28:12.689Z,4.40
2023-05-01T10:30:41.717Z,4.80
2023-05-01T10:33:13.979Z,4.80
2023-05-01T10:35:45.816Z,5.30
2023-05-01T10:38:26.184Z,4.10
2023-05-01T10:40:54.285Z,4.00
2023-05-01T10:43:26.371Z,4.40
2023-05-01T10:46:07.344Z,4.10
2023-05-01T10:48:38.406Z,3.90
2023-05-01T10:51:18.062Z,4.40
2023-05-01T10:53:47.812Z,4.30
2023-05-01T10:56:21.619Z,4.40
2023-05-01T10:59:00.939Z,3.60
2023-05-01T11:01:35.013Z,4.40
2023-05-01T11:04:05.512Z,4.50
2023-05-01T11:06:35.109Z,4.20
2023-05-01T11:09:39.636Z,4.90
2023-05-01T11:12:09.424Z,4.70
2023-05-01T11:15:03.826Z,4.60
2023-05-01T11:17:41.628Z,4.70
2023-05-01T11:20:35.606Z,4.60
2023-05-01T11:23:03.675Z,4.80
2023-05-01T11:25:33.249Z,4.50
2023-05-01T11:28:03.227Z,4.10
2023-05-01T11:30:40.999Z,4.10
2023-05-01T11:33:11.019Z,4.10
2023-05-01T11:35:39.532Z,4.00
2023-05-01T11:38:18.835Z,4.40
2023-05-01T11:40:55.754Z,4.30
2023-05-01T11:43:23.886Z,4.20
2023-05-01T11:45:55.104Z,4.10
2023-05-01T11:48:23.391Z,4.00
2023-05-01T11:50:51.472Z,4.00
2023-05-01T11:53:19.435Z,3.60
2023-05-01T11:55:47.373Z,3.70
2023-05-01T11:58:15.683Z,3.10
2023-05-01T12:00:44.143Z,3.00
2023-05-01T12:03:14.714Z,3.40
2023-05-01T12:05:45.391Z,3.80
2023-05-01T12:08:20.642Z,3.50
2023-05-01T12:10:56.267Z,3.20
2023-05-01T12:13:27.209Z,2.80
2023-05-01T12:15:56.971Z,3.40
2023-05-01T12:18:25.226Z,3.00
2023-05-01T12:20:55.447Z,3.00
2023-05-01T12:23:35.303Z,2.90
2023-05-01T12:26:16.641Z,3.00
2023-05-01T12:28:59.300Z,3.40
2023-05-01T12:31:28.761Z,3.00
2023-05-01T12:34:05.067Z,3.20
2023-05-01T12:36:35.872Z,3.30
2023-05-01T12:39:14.526Z,3.00
2023-05-01T12:41:44.579Z,3.00
2023-05-01T12:44:23.150Z,2.80
2023-05-01T12:47:04.826Z,3.10
2023-05-01T12:49:33.404Z,10.10
2023-05-01T12:52:01.893Z,3.50
2023-05-01T12:54:31.914Z,2.90
2023-05-01T12:57:10.568Z,3.00
2023-05-01T12:59:39.955Z,2.80
2023-05-01T13:02:12.965Z,2.60
2023-05-01T13:04:41.671Z,2.90
2023-05-01T13:07:18.879Z,2.90
2023-05-01T13:09:55.560Z,2.70
2023-05-01T13:12:25.541Z,2.60
2023-05-01T13:14:54.585Z,2.50
2023-05-01T13:17:27.909Z,2.60
2023-05-01T13:20:00.372Z,2.60
2023-05-01T13:22:38.565Z,3.00
2023-05-01T13:25:17.542Z,2.50
2023-05-01T13:27:50.142Z,2.60
2023-05-01T13:30:31.420Z,2.60
2023-05-01T13:32:59.541Z,2.60
2023-05-01T13:35:28.195Z,2.90
2023-05-01T13:37:56.241Z,2.70
2023-05-01T13:40:26.257Z,2.70
2023-05-01T13:42:54.571Z,2.60
2023-05-01T13:45:23.001Z,2.40
2023-05-01T13:47:52.120Z,2.50
2023-05-01T13:50:20.176Z,2.40
2023-05-01T13:52:48.762Z,3.10
2023-05-01T13:55:17.766Z,2.60
2023-05-01T13:57:45.956Z,2.90
2023-05-01T14:00:18.165Z,2.50
2023-05-01T14:02:53.482Z,2.50
2023-05-01T14:05:27.757Z,2.40
2023-05-01T14:07:58.552Z,2.50
2023-05-01T14:10:28.902Z,2.40
2023-05-01T14:12:58.887Z,2.60
2023-05-01T14:15:28.952Z,2.30
2023-05-01T14:17:57.653Z,2.20
2023-05-01T14:20:25.896Z,2.70
2023-05-01T14:22:53.838Z,2.40
2023-05-01T14:25:24.603Z,2.50
2023-05-01T14:27:53.839Z,2.50
2023-05-01T14:30:27.919Z,2.60
2023-05-01T14:32:57.011Z,2.80
2023-05-01T14:35:25.223Z,2.50
2023-05-01T14:37:53.451Z,2.60
2023-05-01T14:40:27.382Z,2.30
2023-05-01T14:42:58.505Z,2.40
2023-05-01T14:45:26.466Z,2.50
2023-05-01T14:47:54.487Z,2.50
2023-05-01T14:50:24.099Z,2.90
2023-05-01T14:52:57.119Z,2.30
2023-05-01T14:55:32.176Z,2.40
2023-05-01T14:58:01.477Z,2.40
2023-05-01T15:00:29.544Z,2.50
2023-05-01T15:02:59.103Z,2.50
2023-05-01T15:05:28.517Z,2.60
2023-05-01T15:07:56.904Z,3.10
2023-05-01T15:10:25.004Z,2.70
2023-05-01T15:12:53.691Z,2.70
2023-05-01T15:15:21.969Z,2.20
2023-05-01T15:17:50.219Z,2.20
2023-05-01T15:20:18.316Z,2.30
2023-05-01T15:22:46.400Z,2.20
2023-05-01T15:25:14.897Z,2.50
2023-05-01T15:27:43.995Z,2.70
2023-05-01T15:30:15.234Z,2.70
2023-05-01T15:32:43.675Z,2.70
2023-05-01T15:35:13.083Z,3.20
2023-05-01T15:37:41.675Z,2.70
2023-05-01T15:40:10.110Z,2.50
2023-05-01T15:42:38.022Z,2.50
2023-05-01T15:45:06.898Z,2.70
2023-05-01T15:47:34.896Z,3.40
2023-05-01T15:50:03.124Z,2.90
2023-05-01T15:52:31.371Z,2.90
2023-05-01T15:54:59.394Z,2.80
2023-05-01T15:57:27.367Z,2.60
2023-05-01T15:59:56.035Z,2.40
2023-05-01T16:02:24.324Z,2.60
2023-05-01T16:04:52.863Z,2.40
2023-05-01T16:07:21.888Z,2.40
2023-05-01T16:09:49.969Z,2.10
2023-05-01T16:12:18.157Z,2.40
2023-05-01T16:14:48.359Z,2.10
2023-05-01T16:17:19.697Z,2.30
2023-05-01T16:19:48.149Z,2.50
2023-05-01T16:22:16.347Z,2.40
2023-05-01T16:24:44.843Z,2.80
2023-05-01T16:27:13.519Z,2.90
2023-05-01T16:29:41.588Z,2.60
2023-05-01T16:32:11.632Z,2.50
2023-05-01T16:34:40.448Z,2.40
2023-05-01T16:37:08.584Z,2.30
2023-05-01T16:39:39.758Z,2.50
2023-05-01T16:42:12.741Z,2.30
2023-05-01T16:44:40.807Z,2.20
2023-05-01T16:47:11.548Z,2.60
2023-05-01T16:49:42.221Z,2.60
2023-05-01T16:52:14.314Z,2.70
2023-05-01T16:54:42.475Z,2.90
2023-05-01T16:57:10.678Z,2.90
2023-05-01T16:59:38.720Z,2.90
2023-05-01T17:02:07.154Z,3.00
2023-05-01T17:04:35.703Z,2.90
2023-05-01T17:07:03.894Z,3.10
2023-05-01T17:09:32.586Z,2.80
2023-05-01T17:12:00.636Z,2.50
2023-05-01T17:14:29.055Z,28.60
2023-05-01T17:17:00.016Z,12.00
2023-05-01T17:19:28.096Z,14.90
2023-05-01T17:21:58.045Z,4.40
2023-05-01T17:24:27.197Z,3.30
2023-05-01T17:26:55.647Z,5.20
2023-05-01T17:29:24.272Z,11.80
2023-05-01T17:31:52.344Z,16.20
2023-05-01T17:34:20.398Z,17.70
2023-05-01T17:36:48.349Z,16.40
2023-05-01T17:39:16.323Z,12.80
2023-05-01T17:41:44.506Z,8.80
2023-05-01T17:44:12.499Z,5.00
2023-05-01T17:46:40.871Z,4.00
2023-05-01T17:49:09.016Z,3.90
2023-05-01T17:51:37.500Z,4.10
2023-05-01T17:54:06.100Z,3.70
2023-05-01T17:56:34.186Z,3.80
2023-05-01T17:59:02.236Z,4.10
2023-05-01T18:01:30.938Z,6.90
2023-05-01T18:03:59.276Z,12.10
2023-05-01T18:06:27.786Z,12.00
2023-05-01T18:08:56.014Z,13.70
2023-05-01T18:11:24.115Z,14.30
2023-05-01T18:13:52.085Z,13.50
2023-05-01T18:16:20.403Z,19.70
2023-05-01T18:18:48.750Z,15.40
2023-05-01T18:21:17.318Z,15.50
2023-05-01T18:23:48.564Z,12.50
2023-05-01T18:26:17.148Z,14.90
2023-05-01T18:28:45.338Z,14.60
2023-05-01T18:31:14.715Z,16.20
2023-05-01T18:33:42.796Z,15.70
2023-05-01T18:36:10.873Z,17.10
2023-05-01T18:38:38.841Z,21.20
2023-05-01T18:41:06.839Z,21.90
2023-05-01T18:43:34.985Z,23.50
2023-05-01T18:46:03.050Z,45.90
2023-05-01T18:48:31.369Z,35.00
2023-05-01T18:51:08.444Z,27.20
2023-05-01T18:53:37.390Z,28.50
2023-05-01T18:56:06.251Z,25.60
2023-05-01T18:58:34.357Z,21.30
2023-05-01T19:01:02.634Z,17.30
2023-05-01T19:03:30.600Z,14.00
2023-05-01T19:05:58.693Z,12.10
2023-05-01T19:08:27.312Z,11.80
2023-05-01T19:10:55.420Z,10.90
2023-05-01T19:13:23.389Z,10.40
2023-05-01T19:15:51.490Z,10.40
2023-05-01T19:18:19.638Z,11.00
2023-05-01T19:20:47.639Z,10.30
2023-05-01T19:23:15.588Z,10.40
2023-05-01T19:25:43.739Z,12.00
2023-05-01T19:28:11.914Z,10.40
2023-05-01T19:30:41.427Z,9.10
2023-05-01T19:33:09.554Z,8.20
2023-05-01T19:35:38.522Z,7.90
2023-05-01T19:38:06.616Z,7.30
2023-05-01T19:40:34.670Z,7.00
2023-05-01T19:43:02.715Z,7.30
2023-05-01T19:45:31.115Z,6.60
2023-05-01T19:47:59.200Z,6.80
2023-05-01T19:50:27.421Z,6.60
2023-05-01T19:52:55.810Z,7.50
2023-05-01T19:55:23.865Z,7.20
2023-05-01T19:57:55.012Z,7.10
2023-05-01T20:00:23.082Z,7.30
2023-05-01T20:02:51.494Z,7.30
2023-05-01T20:05:19.941Z,7.90
2023-05-01T20:07:47.873Z,8.00
2023-05-01T20:10:17.302Z,8.30
2023-05-01T20:12:45.575Z,7.40
2023-05-01T20:15:13.550Z,7.80
2023-05-01T20:17:42.176Z,9.50
2023-05-01T20:20:11.125Z,12.40
2023-05-01T20:22:39.196Z,31.40
2023-05-01T20:25:09.589Z,25.50
2023-05-01T20:27:39.033Z,25.90
2023-05-01T20:30:10.831Z,18.20
2023-05-01T20:32:44.261Z,16.10
2023-05-01T20:35:12.537Z,14.50
2023-05-01T20:37:40.573Z,13.30
2023-05-01T20:40:11.690Z,12.30
2023-05-01T20:42:40.016Z,10.60
2023-05-01T20:45:09.491Z,10.10
2023-05-01T20:47:37.457Z,8.80
2023-05-01T20:50:07.582Z,8.40
2023-05-01T20:52:36.123Z,7.50
2023-05-01T20:55:04.684Z,7.80
2023-05-01T20:57:34.343Z,8.10
2023-05-01T21:00:05.126Z,7.80
2023-05-01T21:02:33.429Z,7.90
2023-05-01T21:05:01.486Z,8.00
2023-05-01T21:07:30.234Z,9.20
2023-05-01T21:09:58.450Z,10.10
2023-05-01T21:12:28.761Z,9.10
2023-05-01T21:14:57.712Z,8.60
2023-05-01T21:17:26.926Z,7.30
2023-05-01T21:19:55.126Z,7.40
2023-05-01T21:22:23.862Z,7.10
2023-05-01T21:24:57.419Z,6.70
2023-05-01T21:27:27.125Z,6.90
2023-05-01T21:29:57.817Z,6.60
2023-05-01T21:32:33.989Z,7.90
2023-05-01T21:35:03.851Z,8.90
2023-05-01T21:37:33.503Z,8.60
2023-05-01T21:40:02.709Z,8.70
2023-05-01T21:42:35.858Z,8.60
2023-05-01T21:45:09.706Z,8.10
2023-05-01T21:47:40.208Z,9.00
2023-05-01T21:50:12.221Z,8.40
2023-05-01T21:52:41.316Z,8.30
2023-05-01T21:55:11.445Z,8.40
2023-05-01T21:57:40.121Z,8.50
2023-05-01T22:00:12.406Z,8.70
2023-05-01T22:02:43.075Z,8.60
2023-05-01T22:05:13.561Z,8.50
2023-05-01T22:07:42.955Z,7.70
2023-05-01T22:10:18.997Z,7.20
2023-05-01T22:12:49.015Z,6.90
2023-05-01T22:15:17.515Z,7.10
2023-05-01T22:17:46.095Z,6.70
2023-05-01T22:20:14.184Z,6.70
2023-05-01T22:22:43.351Z,7.20
2023-05-01T22:25:12.248Z,6.80
2023-05-01T22:27:40.941Z,6.70
2023-05-01T22:30:09.739Z,6.80
2023-05-01T22:32:37.829Z,5.80
2023-05-01T22:35:08.502Z,5.70
2023-05-01T22:37:37.124Z,5.50
2023-05-01T22:40:06.055Z,5.80
2023-05-01T22:42:34.058Z,5.30
2023-05-01T22:45:02.126Z,5.20
2023-05-01T22:47:30.235Z,5.30
2023-05-01T22:49:58.726Z,5.50
2023-05-01T22:52:27.004Z,5.20
2023-05-01T22:54:56.273Z,5.60
2023-05-01T22:57:24.533Z,5.70
2023-05-01T22:59:52.612Z,5.70
2023-05-01T23:02:20.747Z,5.80
2023-05-01T23:04:49.172Z,5.50
2023-05-01T23:07:17.123Z,5.50
2023-05-01T23:09:46.567Z,5.80
2023-05-01T23:12:19.407Z,6.00
2023-05-01T23:14:47.472Z,6.40
2023-05-01T23:17:16.285Z,5.70
2023-05-01T23:19:45.968Z,5.60
2023-05-01T23:22:14.571Z,5.50
2023-05-01T23:24:44.506Z,5.80
2023-05-01T23:27:14.485Z,5.80
2023-05-01T23:29:58.715Z,5.90
2023-05-01T23:32:29.601Z,5.40
2023-05-01T23:35:05.634Z,6.10
2023-05-01T23:37:33.697Z,6.20
2023-05-01T23:40:02.276Z,6.40
2023-05-01T23:42:31.082Z,6.30
2023-05-01T23:44:59.837Z,7.50
2023-05-01T23:47:28.151Z,7.70
2023-05-01T23:49:56.100Z,8.10
2023-05-01T23:52:24.169Z,8.10
2023-05-01T23:54:52.959Z,7.30
2023-05-01T23:57:20.927Z,6.90
2023-05-01T23:59:48.999Z,7.40
